sensor_id;sensor_type;location;lat;lon;timestamp;P1;durP1;ratioP1;P2;durP2;ratioP2
42092;SDS011;28974;50.316;18.960;2023-04-16T00:04:59;95.32;;;45.63;;
42092;SDS011;28974;50.316;18.960;2023-04-16T00:16:59;78.78;;;40.55;;
42092;SDS011;28974;50.316;18.960;2023-04-16T00:28:59;92.57;;;41.03;;
42092;SDS011;28974;50.316;18.960;2023-04-16T00:41:00;78.65;;;38.08;;
42092;SDS011;28974;50.316;18.960;2023-04-16T00:53:02;79.32;;;35.88;;
42092;SDS011;28974;50.316;18.960;2023-04-16T01:05:03;56.78;;;26.50;;
42092;SDS011;28974;50.316;18.960;2023-04-16T01:17:03;74.55;;;34.30;;
42092;SDS011;28974;50.316;18.960;2023-04-16T01:29:04;49.03;;;25.80;;
42092;SDS011;28974;50.316;18.960;2023-04-16T01:41:04;64.07;;;30.98;;
42092;SDS011;28974;50.316;18.960;2023-04-16T01:53:04;57.40;;;26.70;;
42092;SDS011;28974;50.316;18.960;2023-04-16T02:05:05;54.15;;;27.08;;
42092;SDS011;28974;50.316;18.960;2023-04-16T02:17:05;68.13;;;31.92;;
42092;SDS011;28974;50.316;18.960;2023-04-16T02:29:14;94.45;;;41.40;;
42092;SDS011;28974;50.316;18.960;2023-04-16T02:41:20;96.30;;;42.53;;
42092;SDS011;28974;50.316;18.960;2023-04-16T02:53:20;93.55;;;42.28;;
42092;SDS011;28974;50.316;18.960;2023-04-16T03:05:20;102.80;;;41.00;;
42092;SDS011;28974;50.316;18.960;2023-04-16T03:17:21;129.43;;;42.50;;
42092;SDS011;28974;50.316;18.960;2023-04-16T03:29:21;177.25;;;46.20;;
42092;SDS011;28974;50.316;18.960;2023-04-16T03:41:22;169.63;;;49.53;;
42092;SDS011;28974;50.316;18.960;2023-04-16T03:53:23;129.35;;;46.78;;
42092;SDS011;28974;50.316;18.960;2023-04-16T04:05:23;144.27;;;50.67;;
42092;SDS011;28974;50.316;18.960;2023-04-16T04:17:25;174.40;;;51.67;;
42092;SDS011;28974;50.316;18.960;2023-04-16T04:29:25;179.88;;;47.40;;
42092;SDS011;28974;50.316;18.960;2023-04-16T04:41:26;174.40;;;43.97;;
42092;SDS011;28974;50.316;18.960;2023-04-16T04:53:26;163.10;;;40.05;;
42092;SDS011;28974;50.316;18.960;2023-04-16T05:05:28;120.10;;;35.17;;
42092;SDS011;28974;50.316;18.960;2023-04-16T05:17:28;109.82;;;36.13;;
42092;SDS011;28974;50.316;18.960;2023-04-16T05:29:30;101.38;;;35.90;;
42092;SDS011;28974;50.316;18.960;2023-04-16T05:41:30;115.63;;;43.00;;
42092;SDS011;28974;50.316;18.960;2023-04-16T05:53:30;156.07;;;55.30;;
42092;SDS011;28974;50.316;18.960;2023-04-16T06:05:31;143.40;;;47.03;;
42092;SDS011;28974;50.316;18.960;2023-04-16T06:17:31;120.35;;;47.40;;
42092;SDS011;28974;50.316;18.960;2023-04-16T06:29:31;121.25;;;54.92;;
42092;SDS011;28974;50.316;18.960;2023-04-16T06:41:32;139.07;;;59.35;;
42092;SDS011;28974;50.316;18.960;2023-04-16T06:53:32;94.13;;;44.65;;
42092;SDS011;28974;50.316;18.960;2023-04-16T07:05:32;61.78;;;33.25;;
42092;SDS011;28974;50.316;18.960;2023-04-16T07:17:33;75.88;;;37.35;;
42092;SDS011;28974;50.316;18.960;2023-04-16T07:29:33;73.15;;;39.08;;
42092;SDS011;28974;50.316;18.960;2023-04-16T07:41:33;44.78;;;27.15;;
42092;SDS011;28974;50.316;18.960;2023-04-16T07:53:35;45.95;;;25.88;;
42092;SDS011;28974;50.316;18.960;2023-04-16T08:05:35;48.03;;;27.83;;
42092;SDS011;28974;50.316;18.960;2023-04-16T08:17:35;25.23;;;15.48;;
42092;SDS011;28974;50.316;18.960;2023-04-16T08:29:36;29.10;;;17.67;;
42092;SDS011;28974;50.316;18.960;2023-04-16T08:41:37;21.92;;;11.38;;
42092;SDS011;28974;50.316;18.960;2023-04-16T08:53:53;15.60;;;11.35;;
42092;SDS011;28974;50.316;18.960;2023-04-16T09:05:57;15.73;;;10.48;;
42092;SDS011;28974;50.316;18.960;2023-04-16T09:17:58;17.17;;;11.48;;
42092;SDS011;28974;50.316;18.960;2023-04-16T09:29:59;28.05;;;14.65;;
42092;SDS011;28974;50.316;18.960;2023-04-16T09:41:59;43.20;;;22.02;;
42092;SDS011;28974;50.316;18.960;2023-04-16T09:54:00;19.30;;;13.70;;
42092;SDS011;28974;50.316;18.960;2023-04-16T10:06:07;14.27;;;9.57;;
42092;SDS011;28974;50.316;18.960;2023-04-16T10:18:08;19.13;;;12.10;;
42092;SDS011;28974;50.316;18.960;2023-04-16T10:30:08;11.98;;;8.43;;
42092;SDS011;28974;50.316;18.960;2023-04-16T10:42:10;25.85;;;13.55;;
42092;SDS011;28974;50.316;18.960;2023-04-16T11:06:14;17.70;;;12.18;;
42092;SDS011;28974;50.316;18.960;2023-04-16T11:18:19;17.58;;;12.13;;
42092;SDS011;28974;50.316;18.960;2023-04-16T11:30:33;18.38;;;10.75;;
42092;SDS011;28974;50.316;18.960;2023-04-16T11:42:35;16.30;;;11.38;;
42092;SDS011;28974;50.316;18.960;2023-04-16T11:54:39;15.60;;;10.75;;
42092;SDS011;28974;50.316;18.960;2023-04-16T12:06:40;16.27;;;10.68;;
42092;SDS011;28974;50.316;18.960;2023-04-16T12:18:53;16.77;;;10.77;;
42092;SDS011;28974;50.316;18.960;2023-04-16T12:30:57;15.47;;;8.70;;
42092;SDS011;28974;50.316;18.960;2023-04-16T12:42:58;14.77;;;8.60;;
42092;SDS011;28974;50.316;18.960;2023-04-16T12:54:58;12.02;;;8.48;;
42092;SDS011;28974;50.316;18.960;2023-04-16T13:07:00;13.70;;;8.13;;
42092;SDS011;28974;50.316;18.960;2023-04-16T13:19:01;10.50;;;8.63;;
42092;SDS011;28974;50.316;18.960;2023-04-16T13:31:01;12.13;;;8.18;;
42092;SDS011;28974;50.316;18.960;2023-04-16T13:43:01;15.18;;;8.07;;
42092;SDS011;28974;50.316;18.960;2023-04-16T13:55:02;11.10;;;7.30;;
42092;SDS011;28974;50.316;18.960;2023-04-16T14:07:02;16.63;;;11.23;;
42092;SDS011;28974;50.316;18.960;2023-04-16T14:19:03;17.92;;;10.50;;
42092;SDS011;28974;50.316;18.960;2023-04-16T14:31:03;16.33;;;10.05;;
42092;SDS011;28974;50.316;18.960;2023-04-16T14:43:03;21.00;;;11.70;;
42092;SDS011;28974;50.316;18.960;2023-04-16T14:55:04;16.77;;;11.10;;
42092;SDS011;28974;50.316;18.960;2023-04-16T15:07:05;18.92;;;10.40;;
42092;SDS011;28974;50.316;18.960;2023-04-16T15:19:05;16.30;;;10.18;;
42092;SDS011;28974;50.316;18.960;2023-04-16T15:31:06;14.68;;;9.25;;
42092;SDS011;28974;50.316;18.960;2023-04-16T15:43:07;19.10;;;10.23;;
42092;SDS011;28974;50.316;18.960;2023-04-16T15:55:08;15.93;;;9.80;;
42092;SDS011;28974;50.316;18.960;2023-04-16T16:07:08;12.90;;;9.18;;
42092;SDS011;28974;50.316;18.960;2023-04-16T16:19:10;16.60;;;8.50;;
42092;SDS011;28974;50.316;18.960;2023-04-16T16:31:10;16.75;;;8.82;;
42092;SDS011;28974;50.316;18.960;2023-04-16T16:43:11;15.50;;;9.18;;
42092;SDS011;28974;50.316;18.960;2023-04-16T16:55:11;17.00;;;9.23;;
42092;SDS011;28974;50.316;18.960;2023-04-16T17:07:12;18.80;;;10.77;;
42092;SDS011;28974;50.316;18.960;2023-04-16T17:19:12;18.23;;;11.55;;
42092;SDS011;28974;50.316;18.960;2023-04-16T17:31:14;21.42;;;11.82;;
42092;SDS011;28974;50.316;18.960;2023-04-16T17:43:14;23.90;;;12.27;;
42092;SDS011;28974;50.316;18.960;2023-04-16T17:55:15;20.42;;;11.43;;
42092;SDS011;28974;50.316;18.960;2023-04-16T18:07:15;25.83;;;10.82;;
42092;SDS011;28974;50.316;18.960;2023-04-16T18:19:16;22.98;;;12.10;;
42092;SDS011;28974;50.316;18.960;2023-04-16T18:31:16;26.88;;;12.95;;
42092;SDS011;28974;50.316;18.960;2023-04-16T18:43:16;52.17;;;24.10;;
42092;SDS011;28974;50.316;18.960;2023-04-16T18:55:17;52.78;;;23.85;;
42092;SDS011;28974;50.316;18.960;2023-04-16T19:07:17;79.18;;;35.22;;
42092;SDS011;28974;50.316;18.960;2023-04-16T19:19:18;115.65;;;50.92;;
42092;SDS011;28974;50.316;18.960;2023-04-16T19:31:18;89.53;;;41.38;;
42092;SDS011;28974;50.316;18.960;2023-04-16T19:43:18;75.65;;;34.78;;
42092;SDS011;28974;50.316;18.960;2023-04-16T19:55:19;67.13;;;30.95;;
42092;SDS011;28974;50.316;18.960;2023-04-16T20:07:19;63.67;;;28.63;;
42092;SDS011;28974;50.316;18.960;2023-04-16T20:19:19;62.60;;;27.27;;
42092;SDS011;28974;50.316;18.960;2023-04-16T20:31:21;70.35;;;31.25;;
42092;SDS011;28974;50.316;18.960;2023-04-16T20:43:21;74.72;;;32.85;;
42092;SDS011;28974;50.316;18.960;2023-04-16T20:55:25;74.75;;;33.10;;
42092;SDS011;28974;50.316;18.960;2023-04-16T21:07:25;84.40;;;36.75;;
42092;SDS011;28974;50.316;18.960;2023-04-16T21:19:26;80.73;;;36.20;;
42092;SDS011;28974;50.316;18.960;2023-04-16T21:31:26;73.40;;;31.67;;
42092;SDS011;28974;50.316;18.960;2023-04-16T21:43:27;78.45;;;32.45;;
42092;SDS011;28974;50.316;18.960;2023-04-16T21:55:29;71.78;;;29.92;;
42092;SDS011;28974;50.316;18.960;2023-04-16T22:07:30;66.18;;;30.20;;
42092;SDS011;28974;50.316;18.960;2023-04-16T22:19:30;68.20;;;29.40;;
42092;SDS011;28974;50.316;18.960;2023-04-16T22:31:31;67.47;;;27.27;;
42092;SDS011;28974;50.316;18.960;2023-04-16T22:43:31;62.63;;;27.13;;
42092;SDS011;28974;50.316;18.960;2023-04-16T22:55:31;57.80;;;24.30;;
42092;SDS011;28974;50.316;18.960;2023-04-16T23:07:32;43.40;;;20.73;;
42092;SDS011;28974;50.316;18.960;2023-04-16T23:19:32;52.00;;;23.42;;
42092;SDS011;28974;50.316;18.960;2023-04-16T23:31:32;51.38;;;25.02;;
42092;SDS011;28974;50.316;18.960;2023-04-16T23:43:33;49.90;;;24.20;;
42092;SDS011;28974;50.316;18.960;2023-04-16T23:55:34;57.22;;;27.70;;
